createdAt,value
2023-06-03T00:00:42.162Z,99.90
2023-06-03T00:03:14.917Z,99.90
2023-06-03T00:05:41.828Z,99.90
2023-06-03T00:08:09.840Z,99.90
2023-06-03T00:10:36.573Z,99.90
2023-06-03T00:13:03.277Z,99.90
2023-06-03T00:15:30.051Z,99.90
2023-06-03T00:17:57.094Z,99.90
2023-06-03T00:20:26.256Z,99.90
2023-06-03T00:22:53.247Z,99.90
2023-06-03T00:25:20.042Z,99.90
2023-06-03T00:27:50.389Z,99.90
2023-06-03T00:30:17.436Z,99.90
2023-06-03T00:32:45.906Z,99.90
2023-06-03T00:35:12.629Z,99.90
2023-06-03T00:37:39.450Z,99.90
2023-06-03T00:40:06.750Z,99.90
2023-06-03T00:42:33.486Z,99.90
2023-06-03T00:45:00.329Z,99.90
2023-06-03T00:47:28.088Z,99.90
2023-06-03T00:49:55.048Z,99.90
2023-06-03T00:52:23.588Z,99.90
2023-06-03T00:54:51.081Z,99.90
2023-06-03T00:57:20.700Z,99.90
2023-06-03T00:59:47.567Z,99.90
2023-06-03T01:02:14.557Z,99.90
2023-06-03T01:04:46.472Z,99.90
2023-06-03T01:07:24.543Z,99.90
2023-06-03T01:09:59.681Z,99.90
2023-06-03T01:12:43.604Z,99.90
2023-06-03T01:15:16.797Z,99.90
2023-06-03T01:17:48.476Z,99.90
2023-06-03T01:20:17.569Z,99.90
2023-06-03T01:22:45.839Z,99.90
2023-06-03T01:25:16.763Z,99.90
2023-06-03T01:27:46.790Z,99.90
2023-06-03T01:30:16.080Z,99.90
2023-06-03T01:32:44.751Z,99.90
2023-06-03T01:35:12.984Z,99.90
2023-06-03T01:37:41.215Z,99.90
2023-06-03T01:40:09.461Z,99.90
2023-06-03T01:42:36.698Z,99.90
2023-06-03T01:45:04.753Z,99.90
2023-06-03T01:47:32.848Z,99.90
2023-06-03T01:49:59.642Z,99.90
2023-06-03T01:52:27.392Z,99.90
2023-06-03T01:54:54.192Z,99.90
2023-06-03T01:57:20.982Z,99.90
2023-06-03T01:59:47.783Z,99.90
2023-06-03T02:02:14.627Z,99.90
2023-06-03T02:04:46.187Z,99.90
2023-06-03T02:07:13.102Z,99.90
2023-06-03T02:09:39.920Z,99.90
2023-06-03T02:12:07.118Z,99.90
2023-06-03T02:14:34.563Z,99.90
2023-06-03T02:17:01.456Z,99.90
2023-06-03T02:19:28.267Z,99.90
2023-06-03T02:21:58.751Z,99.90
2023-06-03T02:24:29.456Z,99.90
2023-06-03T02:26:58.044Z,99.90
2023-06-03T02:29:28.369Z,99.90
2023-06-03T02:31:56.617Z,99.90
2023-06-03T02:34:23.839Z,99.90
2023-06-03T02:36:50.919Z,99.90
2023-06-03T02:39:18.197Z,99.90
2023-06-03T02:41:46.133Z,99.90
2023-06-03T02:44:14.034Z,99.90
2023-06-03T02:46:41.218Z,99.90
2023-06-03T02:49:09.075Z,99.90
2023-06-03T02:51:37.853Z,99.90
2023-06-03T02:54:05.094Z,99.90
2023-06-03T02:56:31.920Z,99.90
2023-06-03T02:58:58.940Z,99.90
2023-06-03T03:01:28.680Z,99.90
2023-06-03T03:03:56.057Z,99.90
2023-06-03T03:06:23.201Z,99.90
2023-06-03T03:08:51.680Z,99.90
2023-06-03T03:11:18.664Z,99.90
2023-06-03T03:13:46.476Z,99.90
2023-06-03T03:16:13.998Z,99.90
2023-06-03T03:18:41.236Z,99.90
2023-06-03T03:21:08.391Z,99.90
2023-06-03T03:23:35.160Z,99.90
2023-06-03T03:26:02.866Z,99.90
2023-06-03T03:28:30.094Z,99.90
2023-06-03T03:30:57.442Z,99.90
2023-06-03T03:33:24.508Z,99.90
2023-06-03T03:35:51.825Z,99.90
2023-06-03T03:38:18.866Z,99.90
2023-06-03T03:40:45.905Z,99.90
2023-06-03T03:43:20.370Z,99.90
2023-06-03T03:45:47.531Z,99.90
2023-06-03T03:48:16.397Z,99.90
2023-06-03T03:50:43.090Z,99.90
2023-06-03T03:53:32.191Z,99.90
2023-06-03T03:56:00.975Z,99.90
2023-06-03T03:58:49.656Z,99.90
2023-06-03T04:01:19.598Z,99.90
2023-06-03T04:03:48.254Z,99.90
2023-06-03T04:06:38.177Z,99.90
2023-06-03T04:09:06.512Z,99.90
2023-06-03T04:11:43.774Z,99.90
2023-06-03T04:14:11.759Z,99.90
2023-06-03T04:16:45.765Z,99.90
2023-06-03T04:19:17.092Z,99.90
2023-06-03T04:21:44.168Z,99.90
2023-06-03T04:24:11.026Z,99.90
2023-06-03T04:26:38.129Z,99.90
2023-06-03T04:29:05.080Z,99.90
2023-06-03T04:31:32.190Z,99.90
2023-06-03T04:33:59.014Z,99.90
2023-06-03T04:36:25.856Z,99.90
2023-06-03T04:38:52.605Z,99.90
2023-06-03T04:41:19.509Z,99.90
2023-06-03T04:43:47.076Z,99.90
2023-06-03T04:46:15.564Z,99.90
2023-06-03T04:48:42.644Z,99.90
2023-06-03T04:51:10.440Z,99.90
2023-06-03T04:53:37.632Z,99.90
2023-06-03T04:56:06.922Z,99.90
2023-06-03T04:58:34.198Z,99.90
2023-06-03T05:01:00.869Z,99.90
2023-06-03T05:03:27.795Z,99.90
2023-06-03T05:05:54.713Z,99.90
2023-06-03T05:08:21.622Z,99.20
2023-06-03T05:10:48.311Z,99.90
2023-06-03T05:13:15.202Z,98.80
2023-06-03T05:15:41.997Z,98.60
2023-06-03T05:18:08.774Z,99.90
2023-06-03T05:20:35.672Z,96.10
2023-06-03T05:23:02.549Z,97.20
2023-06-03T05:25:29.424Z,97.70
2023-06-03T05:28:03.743Z,97.60
2023-06-03T05:30:31.517Z,97.60
2023-06-03T05:32:58.433Z,99.30
2023-06-03T05:35:25.307Z,94.00
2023-06-03T05:37:52.028Z,95.00
2023-06-03T05:40:18.868Z,92.70
2023-06-03T05:42:48.504Z,91.20
2023-06-03T05:45:16.497Z,91.20
2023-06-03T05:47:43.328Z,92.90
2023-06-03T05:50:10.598Z,90.60
2023-06-03T05:52:37.333Z,91.00
2023-06-03T05:55:04.358Z,88.60
2023-06-03T05:57:31.196Z,86.50
2023-06-03T05:59:57.969Z,91.60
2023-06-03T06:02:24.790Z,80.50
2023-06-03T06:04:51.802Z,80.50
2023-06-03T06:07:18.585Z,81.60
2023-06-03T06:09:45.499Z,76.00
2023-06-03T06:12:12.199Z,71.70
2023-06-03T06:14:39.100Z,78.80
2023-06-03T06:17:06.288Z,75.50
2023-06-03T06:19:36.739Z,77.80
2023-06-03T06:22:03.704Z,67.30
2023-06-03T06:24:30.650Z,70.50
2023-06-03T06:26:57.519Z,76.10
2023-06-03T06:29:24.466Z,72.40
2023-06-03T06:31:52.586Z,68.70
2023-06-03T06:34:19.362Z,64.80
2023-06-03T06:36:51.234Z,61.90
2023-06-03T06:39:44.668Z,64.30
2023-06-03T06:42:13.917Z,63.40
2023-06-03T06:44:48.483Z,62.00
2023-06-03T06:47:37.501Z,66.30
2023-06-03T06:50:08.921Z,62.30
2023-06-03T06:52:38.336Z,65.80
2023-06-03T06:55:22.494Z,63.70
2023-06-03T06:57:49.167Z,60.40
2023-06-03T07:00:16.299Z,56.40
2023-06-03T07:02:43.090Z,59.20
2023-06-03T07:05:10.075Z,54.80
2023-06-03T07:07:37.059Z,57.40
2023-06-03T07:10:05.360Z,54.00
2023-06-03T07:12:37.164Z,55.40
2023-06-03T07:15:04.207Z,58.50
2023-06-03T07:17:30.944Z,57.40
2023-06-03T07:19:58.000Z,64.90
2023-06-03T07:22:26.370Z,63.20
2023-06-03T07:24:53.161Z,61.30
2023-06-03T07:27:27.686Z,57.80
2023-06-03T07:29:58.331Z,61.80
2023-06-03T07:32:26.587Z,60.10
2023-06-03T07:34:54.580Z,57.50
2023-06-03T07:37:21.388Z,55.40
2023-06-03T07:39:48.128Z,54.80
2023-06-03T07:42:22.019Z,61.00
2023-06-03T07:44:50.165Z,58.40
2023-06-03T07:47:18.441Z,56.80
2023-06-03T07:49:46.943Z,57.70
2023-06-03T07:52:20.790Z,54.60
2023-06-03T07:54:48.353Z,57.30
2023-06-03T07:57:15.832Z,54.10
2023-06-03T07:59:54.045Z,58.40
2023-06-03T08:02:21.482Z,57.10
2023-06-03T08:04:48.705Z,55.30
2023-06-03T08:07:17.125Z,69.60
2023-06-03T08:09:44.045Z,58.50
2023-06-03T08:12:11.121Z,56.60
2023-06-03T08:14:39.559Z,56.50
2023-06-03T08:17:14.741Z,58.00
2023-06-03T08:19:46.199Z,57.60
2023-06-03T08:22:37.108Z,53.90
2023-06-03T08:25:04.165Z,57.90
2023-06-03T08:27:33.236Z,56.40
2023-06-03T08:30:00.217Z,60.50
2023-06-03T08:32:27.005Z,57.20
2023-06-03T08:34:53.785Z,54.60
2023-06-03T08:37:20.482Z,53.20
2023-06-03T08:39:48.979Z,55.30
2023-06-03T08:42:20.155Z,55.60
2023-06-03T08:45:04.442Z,68.10
2023-06-03T08:47:53.706Z,59.20
2023-06-03T08:50:22.728Z,57.80
2023-06-03T08:52:52.260Z,65.80
2023-06-03T08:55:20.524Z,58.60
2023-06-03T08:58:04.685Z,63.10
2023-06-03T09:00:32.629Z,54.70
2023-06-03T09:03:01.055Z,61.20
2023-06-03T09:05:28.368Z,63.10
2023-06-03T09:07:56.495Z,59.50
2023-06-03T09:10:23.429Z,56.60
2023-06-03T09:12:51.753Z,69.70
2023-06-03T09:15:18.562Z,69.50
2023-06-03T09:17:45.912Z,62.60
2023-06-03T09:20:13.603Z,57.90
2023-06-03T09:22:43.321Z,57.30
2023-06-03T09:25:10.776Z,57.30
2023-06-03T09:27:37.744Z,58.10
2023-06-03T09:30:05.828Z,58.10
2023-06-03T09:32:35.501Z,58.80
2023-06-03T09:35:05.872Z,56.90
2023-06-03T09:37:33.954Z,58.00
2023-06-03T09:40:01.925Z,64.70
2023-06-03T09:42:43.027Z,66.70
2023-06-03T09:45:38.330Z,59.90
2023-06-03T09:48:05.216Z,60.90
2023-06-03T09:50:33.393Z,56.40
2023-06-03T09:53:01.191Z,57.80
2023-06-03T09:55:34.154Z,60.70
2023-06-03T09:58:11.401Z,61.20
2023-06-03T10:00:50.024Z,64.30
2023-06-03T10:03:19.900Z,54.60
2023-06-03T10:05:47.190Z,60.70
2023-06-03T10:08:13.959Z,56.50
2023-06-03T10:10:57.583Z,65.90
2023-06-03T10:13:24.991Z,55.00
2023-06-03T10:15:54.224Z,63.00
2023-06-03T10:18:42.828Z,59.50
2023-06-03T10:21:11.925Z,63.90
2023-06-03T10:23:40.998Z,56.20
2023-06-03T10:26:08.479Z,62.60
2023-06-03T10:28:37.192Z,57.90
2023-06-03T10:31:06.373Z,56.80
2023-06-03T10:33:33.885Z,60.00
2023-06-03T10:36:03.864Z,53.70
2023-06-03T10:38:31.972Z,53.10
2023-06-03T10:41:00.536Z,54.90
2023-06-03T10:43:30.997Z,59.60
2023-06-03T10:45:59.361Z,62.50
2023-06-03T10:48:27.590Z,59.20
2023-06-03T10:51:00.766Z,53.30
2023-06-03T10:53:28.097Z,59.20
2023-06-03T10:56:09.495Z,52.80
2023-06-03T10:58:38.422Z,54.60
2023-06-03T11:01:06.248Z,51.60
2023-06-03T11:03:35.712Z,50.60
2023-06-03T11:06:22.386Z,49.20
2023-06-03T11:08:59.174Z,50.40
2023-06-03T11:12:06.762Z,61.20
2023-06-03T11:14:42.018Z,52.90
2023-06-03T11:17:11.128Z,58.10
2023-06-03T11:19:48.325Z,57.80
2023-06-03T11:22:38.517Z,52.20
2023-06-03T11:25:06.326Z,48.70
2023-06-03T11:27:33.128Z,59.40
2023-06-03T11:30:01.623Z,46.60
2023-06-03T11:32:39.628Z,54.20
2023-06-03T11:35:06.639Z,56.90
2023-06-03T11:37:42.827Z,50.90
2023-06-03T11:40:18.842Z,50.20
2023-06-03T11:42:45.674Z,52.70
2023-06-03T11:45:18.497Z,52.20
2023-06-03T11:47:51.761Z,59.40
2023-06-03T11:50:19.544Z,49.00
2023-06-03T11:52:46.541Z,48.40
2023-06-03T11:55:23.850Z,49.90
2023-06-03T11:57:51.358Z,50.30
2023-06-03T12:00:20.014Z,49.80
2023-06-03T12:02:47.556Z,49.00
2023-06-03T12:05:16.672Z,55.90
2023-06-03T12:08:05.708Z,49.90
2023-06-03T12:10:41.939Z,46.20
2023-06-03T12:13:08.650Z,49.50
2023-06-03T12:15:35.715Z,48.40
2023-06-03T12:18:05.731Z,53.50
2023-06-03T12:20:32.643Z,53.90
2023-06-03T12:23:04.898Z,51.00
2023-06-03T12:25:34.515Z,50.80
2023-06-03T12:28:28.911Z,50.70
2023-06-03T12:30:55.866Z,48.40
2023-06-03T12:33:23.114Z,50.00
2023-06-03T12:35:57.516Z,49.80
2023-06-03T12:38:27.367Z,51.70
2023-06-03T12:41:09.669Z,55.50
2023-06-03T12:43:36.415Z,49.00
2023-06-03T12:46:19.431Z,46.20
2023-06-03T12:48:46.545Z,47.50
2023-06-03T12:51:27.372Z,46.40
2023-06-03T12:53:57.217Z,51.80
2023-06-03T12:56:28.388Z,44.50
2023-06-03T12:58:56.116Z,44.20
2023-06-03T13:01:23.578Z,54.90
2023-06-03T13:03:56.658Z,49.80
2023-06-03T13:06:24.661Z,53.20
2023-06-03T13:08:53.058Z,52.70
2023-06-03T13:11:21.029Z,46.80
2023-06-03T13:13:48.090Z,46.40
2023-06-03T13:16:14.991Z,44.10
2023-06-03T13:18:42.278Z,46.60
2023-06-03T13:21:09.079Z,46.90
2023-06-03T13:23:36.010Z,49.60
2023-06-03T13:26:03.938Z,49.90
2023-06-03T13:28:30.735Z,46.60
2023-06-03T13:30:57.620Z,50.30
2023-06-03T13:33:24.650Z,47.90
2023-06-03T13:35:51.429Z,51.50
2023-06-03T13:38:18.248Z,47.60
2023-06-03T13:40:45.044Z,46.90
2023-06-03T13:43:11.750Z,45.60
2023-06-03T13:45:38.545Z,51.60
2023-06-03T13:48:05.480Z,47.70
2023-06-03T13:50:32.376Z,50.20
2023-06-03T13:52:59.190Z,49.20
2023-06-03T13:55:27.089Z,46.40
2023-06-03T13:57:53.828Z,46.80
2023-06-03T14:00:21.682Z,50.30
2023-06-03T14:02:48.459Z,46.60
2023-06-03T14:05:15.434Z,46.90
2023-06-03T14:07:42.726Z,46.60
2023-06-03T14:10:10.400Z,48.20
2023-06-03T14:12:37.179Z,47.70
2023-06-03T14:15:04.309Z,44.60
2023-06-03T14:17:31.050Z,45.70
2023-06-03T14:19:58.053Z,43.80
2023-06-03T14:22:25.615Z,46.30
2023-06-03T14:24:52.534Z,46.90
2023-06-03T14:27:19.746Z,51.60
2023-06-03T14:29:46.561Z,46.20
2023-06-03T14:32:13.558Z,48.30
2023-06-03T14:34:40.599Z,46.60
2023-06-03T14:37:07.677Z,47.30
2023-06-03T14:39:34.605Z,46.90
2023-06-03T14:42:01.475Z,46.80
2023-06-03T14:44:28.386Z,55.00
2023-06-03T14:46:55.185Z,47.30
2023-06-03T14:49:25.905Z,47.70
2023-06-03T14:51:52.790Z,47.30
2023-06-03T14:54:19.789Z,48.90
2023-06-03T14:56:46.498Z,48.10
2023-06-03T14:59:13.438Z,48.80
2023-06-03T15:01:40.930Z,48.50
2023-06-03T15:04:08.491Z,47.70
2023-06-03T15:06:35.204Z,47.00
2023-06-03T15:09:02.016Z,47.30
2023-06-03T15:11:28.739Z,50.80
2023-06-03T15:13:55.743Z,48.60
2023-06-03T15:16:22.540Z,50.10
2023-06-03T15:18:49.292Z,47.50
2023-06-03T15:21:16.278Z,49.50
2023-06-03T15:23:43.084Z,48.40
2023-06-03T15:26:09.807Z,48.20
2023-06-03T15:28:37.616Z,57.00
2023-06-03T15:31:04.489Z,48.60
2023-06-03T15:33:31.318Z,49.00
2023-06-03T15:35:58.071Z,48.40
2023-06-03T15:38:25.908Z,49.30
2023-06-03T15:40:52.671Z,48.90
2023-06-03T15:43:22.312Z,49.20
2023-06-03T15:45:49.090Z,48.70
2023-06-03T15:48:16.275Z,48.60
2023-06-03T15:50:43.138Z,50.50
2023-06-03T15:53:10.782Z,49.40
2023-06-03T15:55:37.721Z,48.90
2023-06-03T15:58:04.696Z,50.10
2023-06-03T16:00:31.557Z,47.50
2023-06-03T16:02:59.418Z,50.30
2023-06-03T16:05:26.756Z,49.60
2023-06-03T16:07:53.460Z,48.70
2023-06-03T16:10:20.292Z,49.50
2023-06-03T16:12:47.300Z,50.60
2023-06-03T16:15:14.068Z,48.00
2023-06-03T16:17:41.020Z,48.80
2023-06-03T16:20:08.480Z,47.20
2023-06-03T16:22:35.904Z,51.40
2023-06-03T16:25:04.642Z,47.30
2023-06-03T16:27:31.522Z,53.60
2023-06-03T16:29:58.356Z,47.50
2023-06-03T16:32:25.129Z,49.00
2023-06-03T16:34:51.925Z,50.90
2023-06-03T16:37:18.796Z,48.60
2023-06-03T16:39:45.491Z,53.50
2023-06-03T16:42:12.335Z,50.10
2023-06-03T16:44:39.165Z,52.60
2023-06-03T16:47:06.176Z,51.10
2023-06-03T16:49:32.966Z,48.90
2023-06-03T16:52:01.069Z,50.00
2023-06-03T16:54:28.112Z,49.60
2023-06-03T16:56:54.903Z,48.60
2023-06-03T16:59:22.786Z,49.90
2023-06-03T17:01:49.592Z,49.80
2023-06-03T17:04:16.611Z,50.20
2023-06-03T17:06:43.588Z,51.30
2023-06-03T17:09:13.698Z,49.00
2023-06-03T17:11:40.701Z,49.10
2023-06-03T17:14:07.456Z,50.60
2023-06-03T17:16:34.331Z,50.60
2023-06-03T17:19:01.357Z,51.30
2023-06-03T17:21:28.198Z,50.90
2023-06-03T17:23:55.099Z,50.90
2023-06-03T17:26:22.928Z,51.20
2023-06-03T17:28:49.775Z,50.90
2023-06-03T17:31:16.662Z,52.20
2023-06-03T17:33:46.379Z,51.30
2023-06-03T17:36:13.762Z,54.80
2023-06-03T17:38:43.502Z,54.00
2023-06-03T17:41:10.379Z,51.70
2023-06-03T17:43:37.780Z,51.50
2023-06-03T17:46:05.524Z,51.20
2023-06-03T17:48:32.825Z,51.40
2023-06-03T17:50:59.629Z,52.20
2023-06-03T17:53:27.390Z,53.30
2023-06-03T17:55:58.285Z,52.80
2023-06-03T17:58:26.727Z,53.60
2023-06-03T18:00:53.834Z,56.10
2023-06-03T18:03:20.656Z,54.50
2023-06-03T18:05:47.467Z,53.40
2023-06-03T18:08:14.446Z,56.10
2023-06-03T18:10:41.268Z,53.50
2023-06-03T18:13:08.267Z,60.80
2023-06-03T18:15:35.303Z,57.30
2023-06-03T18:18:02.347Z,54.80
2023-06-03T18:20:29.117Z,58.40
2023-06-03T18:22:57.382Z,54.90
2023-06-03T18:25:25.490Z,55.70
2023-06-03T18:27:52.201Z,54.60
2023-06-03T18:30:18.911Z,54.60
2023-06-03T18:32:45.850Z,54.90
2023-06-03T18:35:12.740Z,61.40
2023-06-03T18:37:43.678Z,55.20
2023-06-03T18:40:10.741Z,55.20
2023-06-03T18:42:37.535Z,55.10
2023-06-03T18:45:04.578Z,55.10
2023-06-03T18:47:31.299Z,56.30
2023-06-03T18:49:59.120Z,55.10
2023-06-03T18:52:26.024Z,55.60
2023-06-03T18:54:52.875Z,55.30
2023-06-03T18:57:19.645Z,61.30
2023-06-03T18:59:47.451Z,56.40
2023-06-03T19:02:14.305Z,55.50
2023-06-03T19:04:41.168Z,60.00
2023-06-03T19:07:08.795Z,55.90
2023-06-03T19:09:35.725Z,55.20
2023-06-03T19:12:02.651Z,55.70
2023-06-03T19:14:30.320Z,55.40
2023-06-03T19:16:57.564Z,56.40
2023-06-03T19:19:25.866Z,57.20
2023-06-03T19:21:53.686Z,57.10
2023-06-03T19:24:20.467Z,58.30
2023-06-03T19:26:47.322Z,61.90
2023-06-03T19:29:14.051Z,61.80
2023-06-03T19:31:40.811Z,63.80
2023-06-03T19:34:07.692Z,67.10
2023-06-03T19:36:34.520Z,65.90
2023-06-03T19:39:01.867Z,65.70
2023-06-03T19:41:28.764Z,66.90
2023-06-03T19:43:55.762Z,66.50
2023-06-03T19:46:22.978Z,66.90
2023-06-03T19:48:49.854Z,67.20
2023-06-03T19:51:16.744Z,67.80
2023-06-03T19:53:43.959Z,69.90
2023-06-03T19:56:12.026Z,67.80
2023-06-03T19:58:38.838Z,67.30
2023-06-03T20:01:06.485Z,68.90
2023-06-03T20:03:33.395Z,69.70
2023-06-03T20:06:00.529Z,69.40
2023-06-03T20:08:27.290Z,69.80
2023-06-03T20:10:54.220Z,70.00
2023-06-03T20:13:32.876Z,70.60
2023-06-03T20:16:02.353Z,72.50
2023-06-03T20:18:29.141Z,71.90
2023-06-03T20:20:56.083Z,73.40
2023-06-03T20:23:23.019Z,71.70
2023-06-03T20:25:49.930Z,71.30
2023-06-03T20:28:17.782Z,71.70
2023-06-03T20:30:44.778Z,73.70
2023-06-03T20:33:12.634Z,73.00
2023-06-03T20:35:39.384Z,73.00
2023-06-03T20:38:06.134Z,73.90
2023-06-03T20:40:32.889Z,72.10
2023-06-03T20:42:59.620Z,73.10
2023-06-03T20:45:26.580Z,74.50
2023-06-03T20:47:55.770Z,74.30
2023-06-03T20:50:24.030Z,74.70
2023-06-03T20:52:51.235Z,74.50
2023-06-03T20:55:18.230Z,76.10
2023-06-03T20:57:45.060Z,76.30
2023-06-03T21:00:12.062Z,75.70
2023-06-03T21:02:39.222Z,76.80
2023-06-03T21:05:06.430Z,76.80
2023-06-03T21:07:33.162Z,77.70
2023-06-03T21:09:59.865Z,78.00
2023-06-03T21:12:27.974Z,76.80
2023-06-03T21:14:55.448Z,78.70
2023-06-03T21:17:23.600Z,79.60
2023-06-03T21:19:50.453Z,83.10
2023-06-03T21:22:18.492Z,79.70
2023-06-03T21:24:46.300Z,81.40
2023-06-03T21:27:13.822Z,88.80
2023-06-03T21:29:40.742Z,80.30
2023-06-03T21:32:07.878Z,83.00
2023-06-03T21:34:34.791Z,83.90
2023-06-03T21:37:01.471Z,90.30
2023-06-03T21:39:28.198Z,91.90
2023-06-03T21:41:54.953Z,86.90
2023-06-03T21:44:21.672Z,89.50
2023-06-03T21:46:48.402Z,91.40
2023-06-03T21:49:15.155Z,89.20
2023-06-03T21:51:41.905Z,95.60
2023-06-03T21:54:08.758Z,90.30
2023-06-03T21:56:35.623Z,91.60
2023-06-03T21:59:02.606Z,93.00
2023-06-03T22:01:30.916Z,90.80
2023-06-03T22:03:58.807Z,97.00
2023-06-03T22:06:26.083Z,95.40
2023-06-03T22:08:54.063Z,94.40
2023-06-03T22:11:24.746Z,94.70
2023-06-03T22:13:51.590Z,97.40
2023-06-03T22:16:19.488Z,94.50
2023-06-03T22:18:46.374Z,94.00
2023-06-03T22:21:13.193Z,95.10
2023-06-03T22:23:40.050Z,97.20
2023-06-03T22:26:06.985Z,99.70
2023-06-03T22:28:33.770Z,99.90
2023-06-03T22:31:01.524Z,94.70
2023-06-03T22:33:28.437Z,96.40
2023-06-03T22:35:56.728Z,95.40
2023-06-03T22:38:23.841Z,99.90
2023-06-03T22:40:52.623Z,96.00
2023-06-03T22:43:21.381Z,99.90
2023-06-03T22:45:49.169Z,98.80
2023-06-03T22:48:16.265Z,96.30
2023-06-03T22:50:43.104Z,99.90
2023-06-03T22:53:10.182Z,99.10
2023-06-03T22:55:36.945Z,99.20
2023-06-03T22:58:03.677Z,99.90
2023-06-03T23:00:30.548Z,96.50
2023-06-03T23:02:57.458Z,99.90
2023-06-03T23:05:25.328Z,97.50
2023-06-03T23:07:53.154Z,99.90
2023-06-03T23:10:19.846Z,99.90
2023-06-03T23:12:46.635Z,99.50
2023-06-03T23:15:13.577Z,99.90
2023-06-03T23:17:41.070Z,99.90
2023-06-03T23:20:18.795Z,98.90
2023-06-03T23:22:45.771Z,98.60
2023-06-03T23:25:12.552Z,99.90
2023-06-03T23:27:39.243Z,99.90
2023-06-03T23:30:06.866Z,99.90
2023-06-03T23:32:33.588Z,99.90
2023-06-03T23:35:00.331Z,99.50
2023-06-03T23:37:27.129Z,99.90
2023-06-03T23:39:53.921Z,99.90
2023-06-03T23:42:20.746Z,99.90
2023-06-03T23:44:51.807Z,99.90
2023-06-03T23:47:19.234Z,99.10
2023-06-03T23:49:46.051Z,99.90
2023-06-03T23:52:12.864Z,99.90
2023-06-03T23:54:39.847Z,99.90
2023-06-03T23:57:06.576Z,99.90
2023-06-03T23:59:33.410Z,99.90
